sensor_id;sensor_type;location;lat;lon;timestamp;temperature;humidity
33865;DHT22;20159;51.072;13.526;2022-11-12T00:02:25;11.60;63.50
33865;DHT22;20159;51.072;13.526;2022-11-12T00:04:50;11.70;63.30
33865;DHT22;20159;51.072;13.526;2022-11-12T00:07:16;11.80;62.70
33865;DHT22;20159;51.072;13.526;2022-11-12T00:09:41;11.90;63.10
33865;DHT22;20159;51.072;13.526;2022-11-12T00:12:07;11.90;62.80
33865;DHT22;20159;51.072;13.526;2022-11-12T00:14:32;12.00;62.60
33865;DHT22;20159;51.072;13.526;2022-11-12T00:16:58;12.00;62.50
33865;DHT22;20159;51.072;13.526;2022-11-12T00:19:26;12.10;62.50
33865;DHT22;20159;51.072;13.526;2022-11-12T00:21:52;12.10;62.20
33865;DHT22;20159;51.072;13.526;2022-11-12T00:24:18;12.10;62.10
33865;DHT22;20159;51.072;13.526;2022-11-12T00:26:43;12.20;62.00
33865;DHT22;20159;51.072;13.526;2022-11-12T00:29:09;12.20;62.20
33865;DHT22;20159;51.072;13.526;2022-11-12T00:31:34;12.20;62.10
33865;DHT22;20159;51.072;13.526;2022-11-12T00:34:00;12.20;62.20
33865;DHT22;20159;51.072;13.526;2022-11-12T00:36:36;12.20;61.80
33865;DHT22;20159;51.072;13.526;2022-11-12T00:39:03;12.20;61.70
33865;DHT22;20159;51.072;13.526;2022-11-12T00:41:28;12.30;61.90
33865;DHT22;20159;51.072;13.526;2022-11-12T00:43:54;12.30;61.70
33865;DHT22;20159;51.072;13.526;2022-11-12T00:46:19;12.30;61.80
33865;DHT22;20159;51.072;13.526;2022-11-12T00:48:45;12.30;62.10
33865;DHT22;20159;51.072;13.526;2022-11-12T00:51:14;12.30;61.60
33865;DHT22;20159;51.072;13.526;2022-11-12T00:53:39;12.30;61.40
33865;DHT22;20159;51.072;13.526;2022-11-12T00:56:06;12.40;61.80
33865;DHT22;20159;51.072;13.526;2022-11-12T00:58:33;12.40;61.40
33865;DHT22;20159;51.072;13.526;2022-11-12T01:01:11;12.40;61.50
33865;DHT22;20159;51.072;13.526;2022-11-12T01:03:38;12.40;61.40
33865;DHT22;20159;51.072;13.526;2022-11-12T01:06:22;12.40;61.30
33865;DHT22;20159;51.072;13.526;2022-11-12T01:08:48;12.40;61.40
33865;DHT22;20159;51.072;13.526;2022-11-12T01:11:20;12.40;61.30
33865;DHT22;20159;51.072;13.526;2022-11-12T01:13:51;12.40;61.30
33865;DHT22;20159;51.072;13.526;2022-11-12T01:16:19;12.40;61.30
33865;DHT22;20159;51.072;13.526;2022-11-12T01:18:46;12.40;61.30
33865;DHT22;20159;51.072;13.526;2022-11-12T01:21:13;12.40;60.80
33865;DHT22;20159;51.072;13.526;2022-11-12T01:23:40;12.40;61.10
33865;DHT22;20159;51.072;13.526;2022-11-12T01:26:12;12.40;60.80
33865;DHT22;20159;51.072;13.526;2022-11-12T01:28:38;12.40;60.80
33865;DHT22;20159;51.072;13.526;2022-11-12T01:31:20;12.40;61.20
33865;DHT22;20159;51.072;13.526;2022-11-12T01:33:48;12.40;60.80
33865;DHT22;20159;51.072;13.526;2022-11-12T01:36:15;12.40;61.10
33865;DHT22;20159;51.072;13.526;2022-11-12T01:38:42;12.40;60.80
33865;DHT22;20159;51.072;13.526;2022-11-12T01:41:11;12.40;61.00
33865;DHT22;20159;51.072;13.526;2022-11-12T01:43:37;12.30;60.80
33865;DHT22;20159;51.072;13.526;2022-11-12T01:46:11;12.30;60.90
33865;DHT22;20159;51.072;13.526;2022-11-12T01:48:41;12.30;60.80
33865;DHT22;20159;51.072;13.526;2022-11-12T01:51:10;12.30;60.40
33865;DHT22;20159;51.072;13.526;2022-11-12T01:53:43;12.30;60.80
33865;DHT22;20159;51.072;13.526;2022-11-12T01:56:09;12.30;60.70
33865;DHT22;20159;51.072;13.526;2022-11-12T01:58:37;12.30;60.90
33865;DHT22;20159;51.072;13.526;2022-11-12T02:01:03;12.30;60.50
33865;DHT22;20159;51.072;13.526;2022-11-12T02:03:28;12.40;60.70
33865;DHT22;20159;51.072;13.526;2022-11-12T02:05:58;12.40;60.60
33865;DHT22;20159;51.072;13.526;2022-11-12T02:08:25;12.40;60.00
33865;DHT22;20159;51.072;13.526;2022-11-12T02:10:52;12.40;60.20
33865;DHT22;20159;51.072;13.526;2022-11-12T02:13:18;12.40;60.30
33865;DHT22;20159;51.072;13.526;2022-11-12T02:16:03;12.40;60.10
33865;DHT22;20159;51.072;13.526;2022-11-12T02:18:29;12.40;60.40
33865;DHT22;20159;51.072;13.526;2022-11-12T02:20:57;12.40;60.40
33865;DHT22;20159;51.072;13.526;2022-11-12T02:23:23;12.40;60.20
33865;DHT22;20159;51.072;13.526;2022-11-12T02:25:48;12.40;60.40
33865;DHT22;20159;51.072;13.526;2022-11-12T02:28:14;12.40;60.50
33865;DHT22;20159;51.072;13.526;2022-11-12T02:30:46;12.40;60.40
33865;DHT22;20159;51.072;13.526;2022-11-12T02:33:12;12.40;60.50
33865;DHT22;20159;51.072;13.526;2022-11-12T02:35:38;12.40;60.60
33865;DHT22;20159;51.072;13.526;2022-11-12T02:38:05;12.30;60.60
33865;DHT22;20159;51.072;13.526;2022-11-12T02:40:31;12.30;60.60
33865;DHT22;20159;51.072;13.526;2022-11-12T02:42:56;12.20;60.70
33865;DHT22;20159;51.072;13.526;2022-11-12T02:45:22;12.20;60.80
33865;DHT22;20159;51.072;13.526;2022-11-12T02:47:48;12.10;60.90
33865;DHT22;20159;51.072;13.526;2022-11-12T02:50:14;12.10;61.00
33865;DHT22;20159;51.072;13.526;2022-11-12T02:52:39;12.00;60.90
33865;DHT22;20159;51.072;13.526;2022-11-12T02:55:07;11.90;61.20
33865;DHT22;20159;51.072;13.526;2022-11-12T02:57:32;11.90;61.20
33865;DHT22;20159;51.072;13.526;2022-11-12T02:59:58;11.80;61.20
33865;DHT22;20159;51.072;13.526;2022-11-12T03:02:23;11.80;61.20
33865;DHT22;20159;51.072;13.526;2022-11-12T03:04:49;11.70;61.30
33865;DHT22;20159;51.072;13.526;2022-11-12T03:07:15;11.70;61.60
33865;DHT22;20159;51.072;13.526;2022-11-12T03:09:40;11.60;61.60
33865;DHT22;20159;51.072;13.526;2022-11-12T03:12:06;11.50;61.50
33865;DHT22;20159;51.072;13.526;2022-11-12T03:14:31;11.50;61.90
33865;DHT22;20159;51.072;13.526;2022-11-12T03:16:57;11.40;61.80
33865;DHT22;20159;51.072;13.526;2022-11-12T03:19:22;11.40;62.00
33865;DHT22;20159;51.072;13.526;2022-11-12T03:21:48;11.30;62.20
33865;DHT22;20159;51.072;13.526;2022-11-12T03:24:13;11.20;62.30
33865;DHT22;20159;51.072;13.526;2022-11-12T03:26:39;11.20;62.60
33865;DHT22;20159;51.072;13.526;2022-11-12T03:29:04;11.10;62.70
33865;DHT22;20159;51.072;13.526;2022-11-12T03:31:30;11.00;62.90
33865;DHT22;20159;51.072;13.526;2022-11-12T03:33:56;10.90;63.10
33865;DHT22;20159;51.072;13.526;2022-11-12T03:36:21;10.90;63.10
33865;DHT22;20159;51.072;13.526;2022-11-12T03:38:47;10.80;63.20
33865;DHT22;20159;51.072;13.526;2022-11-12T03:41:12;10.70;63.40
33865;DHT22;20159;51.072;13.526;2022-11-12T03:43:38;10.70;63.40
33865;DHT22;20159;51.072;13.526;2022-11-12T03:46:03;10.60;63.50
33865;DHT22;20159;51.072;13.526;2022-11-12T03:48:29;10.50;63.70
33865;DHT22;20159;51.072;13.526;2022-11-12T03:50:58;10.40;63.70
33865;DHT22;20159;51.072;13.526;2022-11-12T03:53:24;10.40;63.80
33865;DHT22;20159;51.072;13.526;2022-11-12T03:55:50;10.40;64.10
33865;DHT22;20159;51.072;13.526;2022-11-12T03:58:15;10.30;63.90
33865;DHT22;20159;51.072;13.526;2022-11-12T04:00:41;10.30;63.80
33865;DHT22;20159;51.072;13.526;2022-11-12T04:03:06;10.30;63.90
33865;DHT22;20159;51.072;13.526;2022-11-12T04:05:32;10.30;63.80
33865;DHT22;20159;51.072;13.526;2022-11-12T04:08:19;10.20;64.00
33865;DHT22;20159;51.072;13.526;2022-11-12T04:11:01;10.20;63.80
33865;DHT22;20159;51.072;13.526;2022-11-12T04:13:27;10.20;64.10
33865;DHT22;20159;51.072;13.526;2022-11-12T04:16:00;10.10;64.10
33865;DHT22;20159;51.072;13.526;2022-11-12T04:18:46;10.20;64.00
33865;DHT22;20159;51.072;13.526;2022-11-12T04:21:36;10.20;64.20
33865;DHT22;20159;51.072;13.526;2022-11-12T04:24:29;10.10;64.40
33865;DHT22;20159;51.072;13.526;2022-11-12T04:27:25;10.10;64.80
33865;DHT22;20159;51.072;13.526;2022-11-12T04:29:52;10.10;65.00
33865;DHT22;20159;51.072;13.526;2022-11-12T04:32:51;10.00;65.00
33865;DHT22;20159;51.072;13.526;2022-11-12T04:35:19;9.90;65.30
33865;DHT22;20159;51.072;13.526;2022-11-12T04:37:46;9.90;65.50
33865;DHT22;20159;51.072;13.526;2022-11-12T04:40:21;9.80;65.70
33865;DHT22;20159;51.072;13.526;2022-11-12T04:43:08;9.80;66.20
33865;DHT22;20159;51.072;13.526;2022-11-12T04:45:53;9.70;66.20
33865;DHT22;20159;51.072;13.526;2022-11-12T04:48:20;9.60;66.30
33865;DHT22;20159;51.072;13.526;2022-11-12T04:50:49;9.50;66.60
33865;DHT22;20159;51.072;13.526;2022-11-12T04:53:17;9.40;67.00
33865;DHT22;20159;51.072;13.526;2022-11-12T04:55:43;9.30;67.00
33865;DHT22;20159;51.072;13.526;2022-11-12T04:58:08;9.20;67.20
33865;DHT22;20159;51.072;13.526;2022-11-12T05:00:34;9.10;67.30
33865;DHT22;20159;51.072;13.526;2022-11-12T05:03:00;9.10;67.50
33865;DHT22;20159;51.072;13.526;2022-11-12T05:05:25;9.00;67.70
33865;DHT22;20159;51.072;13.526;2022-11-12T05:07:51;8.90;68.00
33865;DHT22;20159;51.072;13.526;2022-11-12T05:10:17;8.90;68.40
33865;DHT22;20159;51.072;13.526;2022-11-12T05:12:43;8.80;68.40
33865;DHT22;20159;51.072;13.526;2022-11-12T05:15:09;8.70;68.60
33865;DHT22;20159;51.072;13.526;2022-11-12T05:17:40;8.70;68.90
33865;DHT22;20159;51.072;13.526;2022-11-12T05:20:06;8.60;69.00
33865;DHT22;20159;51.072;13.526;2022-11-12T05:22:32;8.50;69.30
33865;DHT22;20159;51.072;13.526;2022-11-12T05:24:58;8.50;69.60
33865;DHT22;20159;51.072;13.526;2022-11-12T05:27:23;8.40;69.70
33865;DHT22;20159;51.072;13.526;2022-11-12T05:29:49;8.30;69.70
33865;DHT22;20159;51.072;13.526;2022-11-12T05:32:15;8.30;69.80
33865;DHT22;20159;51.072;13.526;2022-11-12T05:34:41;8.20;69.90
33865;DHT22;20159;51.072;13.526;2022-11-12T05:37:08;8.10;70.00
33865;DHT22;20159;51.072;13.526;2022-11-12T05:39:34;8.10;70.20
33865;DHT22;20159;51.072;13.526;2022-11-12T05:42:00;8.00;70.40
33865;DHT22;20159;51.072;13.526;2022-11-12T05:44:25;8.00;70.40
33865;DHT22;20159;51.072;13.526;2022-11-12T05:46:51;7.80;70.30
33865;DHT22;20159;51.072;13.526;2022-11-12T05:49:17;7.80;70.70
33865;DHT22;20159;51.072;13.526;2022-11-12T05:51:43;7.70;70.80
33865;DHT22;20159;51.072;13.526;2022-11-12T05:54:09;7.60;71.20
33865;DHT22;20159;51.072;13.526;2022-11-12T05:56:35;7.60;71.60
33865;DHT22;20159;51.072;13.526;2022-11-12T05:59:02;7.50;71.90
33865;DHT22;20159;51.072;13.526;2022-11-12T06:01:29;7.40;72.20
33865;DHT22;20159;51.072;13.526;2022-11-12T06:03:55;7.30;72.10
33865;DHT22;20159;51.072;13.526;2022-11-12T06:06:21;7.20;72.30
33865;DHT22;20159;51.072;13.526;2022-11-12T06:08:47;7.20;72.50
33865;DHT22;20159;51.072;13.526;2022-11-12T06:11:12;7.10;72.60
33865;DHT22;20159;51.072;13.526;2022-11-12T06:13:38;7.00;72.70
33865;DHT22;20159;51.072;13.526;2022-11-12T06:16:04;7.00;73.00
33865;DHT22;20159;51.072;13.526;2022-11-12T06:18:29;6.90;73.30
33865;DHT22;20159;51.072;13.526;2022-11-12T06:21:07;6.80;73.40
33865;DHT22;20159;51.072;13.526;2022-11-12T06:23:48;6.80;74.20
33865;DHT22;20159;51.072;13.526;2022-11-12T06:26:14;6.70;73.80
33865;DHT22;20159;51.072;13.526;2022-11-12T06:28:40;6.70;73.90
33865;DHT22;20159;51.072;13.526;2022-11-12T06:31:05;6.60;74.20
33865;DHT22;20159;51.072;13.526;2022-11-12T06:33:31;6.50;74.50
33865;DHT22;20159;51.072;13.526;2022-11-12T06:36:01;6.50;74.90
33865;DHT22;20159;51.072;13.526;2022-11-12T06:38:37;6.40;75.00
33865;DHT22;20159;51.072;13.526;2022-11-12T06:41:04;6.40;75.80
33865;DHT22;20159;51.072;13.526;2022-11-12T06:43:31;6.40;75.50
33865;DHT22;20159;51.072;13.526;2022-11-12T06:46:14;6.40;75.90
33865;DHT22;20159;51.072;13.526;2022-11-12T06:48:40;6.40;76.60
33865;DHT22;20159;51.072;13.526;2022-11-12T06:51:08;6.40;76.20
33865;DHT22;20159;51.072;13.526;2022-11-12T06:53:34;6.40;76.50
33865;DHT22;20159;51.072;13.526;2022-11-12T06:56:04;6.40;76.70
33865;DHT22;20159;51.072;13.526;2022-11-12T06:58:30;6.50;76.80
33865;DHT22;20159;51.072;13.526;2022-11-12T07:00:55;6.50;77.20
33865;DHT22;20159;51.072;13.526;2022-11-12T07:03:21;6.60;78.30
33865;DHT22;20159;51.072;13.526;2022-11-12T07:05:46;6.60;79.00
33865;DHT22;20159;51.072;13.526;2022-11-12T07:08:12;6.90;79.40
33865;DHT22;20159;51.072;13.526;2022-11-12T07:10:37;7.10;79.70
33865;DHT22;20159;51.072;13.526;2022-11-12T07:13:03;7.30;79.60
33865;DHT22;20159;51.072;13.526;2022-11-12T07:15:29;7.60;79.80
33865;DHT22;20159;51.072;13.526;2022-11-12T07:17:54;7.70;79.70
33865;DHT22;20159;51.072;13.526;2022-11-12T07:20:20;10.30;81.10
33865;DHT22;20159;51.072;13.526;2022-11-12T07:22:48;8.20;79.20
33865;DHT22;20159;51.072;13.526;2022-11-12T07:25:14;8.40;79.30
33865;DHT22;20159;51.072;13.526;2022-11-12T07:27:39;8.70;79.40
33865;DHT22;20159;51.072;13.526;2022-11-12T07:30:05;8.90;79.40
33865;DHT22;20159;51.072;13.526;2022-11-12T07:32:31;9.20;79.60
33865;DHT22;20159;51.072;13.526;2022-11-12T07:35:09;9.50;79.80
33865;DHT22;20159;51.072;13.526;2022-11-12T07:37:34;9.90;78.20
33865;DHT22;20159;51.072;13.526;2022-11-12T07:40:01;10.30;80.00
33865;DHT22;20159;51.072;13.526;2022-11-12T07:42:28;10.80;79.60
33865;DHT22;20159;51.072;13.526;2022-11-12T07:44:53;11.30;78.90
33865;DHT22;20159;51.072;13.526;2022-11-12T07:47:19;11.70;76.90
33865;DHT22;20159;51.072;13.526;2022-11-12T07:49:45;12.20;75.60
33865;DHT22;20159;51.072;13.526;2022-11-12T07:52:10;12.60;75.40
33865;DHT22;20159;51.072;13.526;2022-11-12T07:54:36;13.10;75.60
33865;DHT22;20159;51.072;13.526;2022-11-12T07:57:01;13.50;75.40
33865;DHT22;20159;51.072;13.526;2022-11-12T07:59:27;14.00;74.40
33865;DHT22;20159;51.072;13.526;2022-11-12T08:01:53;14.50;73.40
33865;DHT22;20159;51.072;13.526;2022-11-12T08:04:18;14.90;72.20
33865;DHT22;20159;51.072;13.526;2022-11-12T08:06:44;15.40;71.20
33865;DHT22;20159;51.072;13.526;2022-11-12T08:09:09;15.80;70.10
33865;DHT22;20159;51.072;13.526;2022-11-12T08:11:35;16.10;68.60
33865;DHT22;20159;51.072;13.526;2022-11-12T08:14:01;15.70;66.00
33865;DHT22;20159;51.072;13.526;2022-11-12T08:16:26;16.70;64.80
33865;DHT22;20159;51.072;13.526;2022-11-12T08:18:52;16.90;63.30
33865;DHT22;20159;51.072;13.526;2022-11-12T08:21:18;16.90;62.80
33865;DHT22;20159;51.072;13.526;2022-11-12T08:23:44;16.90;62.80
33865;DHT22;20159;51.072;13.526;2022-11-12T08:26:11;16.90;61.90
33865;DHT22;20159;51.072;13.526;2022-11-12T08:28:38;16.80;60.90
33865;DHT22;20159;51.072;13.526;2022-11-12T08:31:13;16.80;62.10
33865;DHT22;20159;51.072;13.526;2022-11-12T08:33:40;16.70;61.60
33865;DHT22;20159;51.072;13.526;2022-11-12T08:36:08;16.70;61.70
33865;DHT22;20159;51.072;13.526;2022-11-12T08:38:35;16.70;61.20
33865;DHT22;20159;51.072;13.526;2022-11-12T08:41:02;16.60;60.80
33865;DHT22;20159;51.072;13.526;2022-11-12T08:43:28;16.60;61.10
33865;DHT22;20159;51.072;13.526;2022-11-12T08:45:57;16.60;61.30
33865;DHT22;20159;51.072;13.526;2022-11-12T08:48:23;16.80;60.80
33865;DHT22;20159;51.072;13.526;2022-11-12T08:50:49;16.90;63.20
33865;DHT22;20159;51.072;13.526;2022-11-12T08:53:14;17.10;62.80
33865;DHT22;20159;51.072;13.526;2022-11-12T08:55:40;17.40;61.80
33865;DHT22;20159;51.072;13.526;2022-11-12T08:58:06;17.50;60.90
33865;DHT22;20159;51.072;13.526;2022-11-12T09:00:36;17.70;60.40
33865;DHT22;20159;51.072;13.526;2022-11-12T09:03:03;17.80;59.40
33865;DHT22;20159;51.072;13.526;2022-11-12T09:05:29;17.80;59.70
33865;DHT22;20159;51.072;13.526;2022-11-12T09:07:59;17.90;60.10
33865;DHT22;20159;51.072;13.526;2022-11-12T09:10:25;17.90;59.90
33865;DHT22;20159;51.072;13.526;2022-11-12T09:12:51;17.90;59.60
33865;DHT22;20159;51.072;13.526;2022-11-12T09:15:21;18.00;59.10
33865;DHT22;20159;51.072;13.526;2022-11-12T09:17:47;18.00;58.60
33865;DHT22;20159;51.072;13.526;2022-11-12T09:20:18;18.00;59.30
33865;DHT22;20159;51.072;13.526;2022-11-12T09:22:44;18.00;59.30
33865;DHT22;20159;51.072;13.526;2022-11-12T09:25:09;18.00;58.80
33865;DHT22;20159;51.072;13.526;2022-11-12T09:27:35;18.00;58.90
33865;DHT22;20159;51.072;13.526;2022-11-12T09:30:00;18.00;59.10
33865;DHT22;20159;51.072;13.526;2022-11-12T09:32:26;18.00;58.80
33865;DHT22;20159;51.072;13.526;2022-11-12T09:34:51;18.00;59.50
33865;DHT22;20159;51.072;13.526;2022-11-12T09:37:17;18.10;61.10
33865;DHT22;20159;51.072;13.526;2022-11-12T09:39:42;18.30;60.90
33865;DHT22;20159;51.072;13.526;2022-11-12T09:42:12;18.40;59.30
33865;DHT22;20159;51.072;13.526;2022-11-12T09:44:41;18.60;58.30
33865;DHT22;20159;51.072;13.526;2022-11-12T09:47:22;18.70;58.30
33865;DHT22;20159;51.072;13.526;2022-11-12T09:49:56;18.80;57.80
33865;DHT22;20159;51.072;13.526;2022-11-12T09:52:26;19.00;57.60
33865;DHT22;20159;51.072;13.526;2022-11-12T09:55:13;19.20;57.60
33865;DHT22;20159;51.072;13.526;2022-11-12T09:57:41;19.50;57.60
33865;DHT22;20159;51.072;13.526;2022-11-12T10:00:17;19.70;58.30
33865;DHT22;20159;51.072;13.526;2022-11-12T10:02:56;20.10;57.90
33865;DHT22;20159;51.072;13.526;2022-11-12T10:05:29;20.40;56.10
33865;DHT22;20159;51.072;13.526;2022-11-12T10:14:53;21.70;56.60
33865;DHT22;20159;51.072;13.526;2022-11-12T10:17:36;22.00;52.60
33865;DHT22;20159;51.072;13.526;2022-11-12T10:20:24;22.30;52.20
33865;DHT22;20159;51.072;13.526;2022-11-12T10:23:10;22.40;51.50
33865;DHT22;20159;51.072;13.526;2022-11-12T10:25:42;22.50;50.50
33865;DHT22;20159;51.072;13.526;2022-11-12T10:31:00;22.60;49.00
33865;DHT22;20159;51.072;13.526;2022-11-12T10:33:30;22.60;48.20
33865;DHT22;20159;51.072;13.526;2022-11-12T10:38:27;22.70;48.00
33865;DHT22;20159;51.072;13.526;2022-11-12T10:40:52;22.70;49.30
33865;DHT22;20159;51.072;13.526;2022-11-12T10:43:19;22.80;49.10
33865;DHT22;20159;51.072;13.526;2022-11-12T10:45:47;22.90;49.20
33865;DHT22;20159;51.072;13.526;2022-11-12T10:48:39;23.00;49.60
33865;DHT22;20159;51.072;13.526;2022-11-12T10:51:18;23.00;49.00
33865;DHT22;20159;51.072;13.526;2022-11-12T10:53:46;23.00;47.80
33865;DHT22;20159;51.072;13.526;2022-11-12T10:56:30;23.00;47.80
33865;DHT22;20159;51.072;13.526;2022-11-12T10:59:17;22.80;48.30
33865;DHT22;20159;51.072;13.526;2022-11-12T11:01:44;22.70;48.70
33865;DHT22;20159;51.072;13.526;2022-11-12T11:09:51;22.40;50.60
33865;DHT22;20159;51.072;13.526;2022-11-12T11:12:32;22.40;49.40
33865;DHT22;20159;51.072;13.526;2022-11-12T11:17:35;22.50;49.10
33865;DHT22;20159;51.072;13.526;2022-11-12T11:20:10;22.50;50.10
33865;DHT22;20159;51.072;13.526;2022-11-12T11:22:44;22.60;48.90
33865;DHT22;20159;51.072;13.526;2022-11-12T11:25:18;22.50;46.80
33865;DHT22;20159;51.072;13.526;2022-11-12T11:30:30;22.50;46.40
33865;DHT22;20159;51.072;13.526;2022-11-12T11:33:04;22.50;47.10
33865;DHT22;20159;51.072;13.526;2022-11-12T11:35:47;22.50;45.70
33865;DHT22;20159;51.072;13.526;2022-11-12T11:44:06;22.50;45.70
33865;DHT22;20159;51.072;13.526;2022-11-12T11:47:05;22.40;46.70
33865;DHT22;20159;51.072;13.526;2022-11-12T11:49:56;22.40;45.20
33865;DHT22;20159;51.072;13.526;2022-11-12T11:52:48;22.20;45.10
33865;DHT22;20159;51.072;13.526;2022-11-12T11:57:58;22.00;45.10
33865;DHT22;20159;51.072;13.526;2022-11-12T12:00:36;21.90;45.40
33865;DHT22;20159;51.072;13.526;2022-11-12T12:11:49;21.40;45.60
33865;DHT22;20159;51.072;13.526;2022-11-12T12:19:51;21.30;46.40
33865;DHT22;20159;51.072;13.526;2022-11-12T12:22:24;21.30;47.30
33865;DHT22;20159;51.072;13.526;2022-11-12T12:24:57;21.30;47.10
33865;DHT22;20159;51.072;13.526;2022-11-12T12:27:34;21.40;47.60
33865;DHT22;20159;51.072;13.526;2022-11-12T12:30:21;21.60;46.90
33865;DHT22;20159;51.072;13.526;2022-11-12T12:32:54;21.80;47.20
33865;DHT22;20159;51.072;13.526;2022-11-12T12:35:32;21.90;46.70
33865;DHT22;20159;51.072;13.526;2022-11-12T12:40:50;22.30;46.10
33865;DHT22;20159;51.072;13.526;2022-11-12T12:43:40;22.40;46.00
33865;DHT22;20159;51.072;13.526;2022-11-12T12:46:10;22.50;46.20
33865;DHT22;20159;51.072;13.526;2022-11-12T12:48:40;22.60;46.40
33865;DHT22;20159;51.072;13.526;2022-11-12T12:51:07;22.70;46.10
33865;DHT22;20159;51.072;13.526;2022-11-12T12:53:34;22.80;46.00
33865;DHT22;20159;51.072;13.526;2022-11-12T13:01:31;22.90;45.70
33865;DHT22;20159;51.072;13.526;2022-11-12T13:04:08;22.90;45.10
33865;DHT22;20159;51.072;13.526;2022-11-12T13:14:47;22.70;44.80
33865;DHT22;20159;51.072;13.526;2022-11-12T13:17:41;22.70;44.10
33865;DHT22;20159;51.072;13.526;2022-11-12T13:32:52;22.20;45.30
33865;DHT22;20159;51.072;13.526;2022-11-12T13:40:24;21.80;44.60
33865;DHT22;20159;51.072;13.526;2022-11-12T13:42:51;21.70;44.60
33865;DHT22;20159;51.072;13.526;2022-11-12T13:45:22;21.50;45.00
33865;DHT22;20159;51.072;13.526;2022-11-12T13:47:49;21.30;44.70
33865;DHT22;20159;51.072;13.526;2022-11-12T13:50:19;21.10;45.20
33865;DHT22;20159;51.072;13.526;2022-11-12T13:52:46;21.00;45.40
33865;DHT22;20159;51.072;13.526;2022-11-12T13:55:20;20.80;45.30
33865;DHT22;20159;51.072;13.526;2022-11-12T13:57:51;20.70;45.80
33865;DHT22;20159;51.072;13.526;2022-11-12T14:00:18;20.50;45.80
33865;DHT22;20159;51.072;13.526;2022-11-12T14:05:24;20.20;46.40
33865;DHT22;20159;51.072;13.526;2022-11-12T14:14:10;19.70;47.00
33865;DHT22;20159;51.072;13.526;2022-11-12T14:17:03;19.40;47.20
33865;DHT22;20159;51.072;13.526;2022-11-12T14:20:05;19.20;47.50
33865;DHT22;20159;51.072;13.526;2022-11-12T14:22:43;19.00;48.40
33865;DHT22;20159;51.072;13.526;2022-11-12T14:25:16;18.80;48.80
33865;DHT22;20159;51.072;13.526;2022-11-12T14:27:43;18.60;49.30
33865;DHT22;20159;51.072;13.526;2022-11-12T14:30:13;18.40;49.70
33865;DHT22;20159;51.072;13.526;2022-11-12T14:32:42;18.20;50.70
33865;DHT22;20159;51.072;13.526;2022-11-12T14:40:32;17.50;51.30
33865;DHT22;20159;51.072;13.526;2022-11-12T14:43:00;17.30;51.70
33865;DHT22;20159;51.072;13.526;2022-11-12T14:45:25;17.10;53.90
33865;DHT22;20159;51.072;13.526;2022-11-12T14:47:52;16.90;53.30
33865;DHT22;20159;51.072;13.526;2022-11-12T14:50:30;16.70;53.50
33865;DHT22;20159;51.072;13.526;2022-11-12T14:53:22;16.50;54.30
33865;DHT22;20159;51.072;13.526;2022-11-12T14:55:52;16.30;55.30
33865;DHT22;20159;51.072;13.526;2022-11-12T14:58:20;16.10;55.10
33865;DHT22;20159;51.072;13.526;2022-11-12T15:00:48;15.90;55.60
33865;DHT22;20159;51.072;13.526;2022-11-12T15:03:18;15.70;56.00
33865;DHT22;20159;51.072;13.526;2022-11-12T15:06:06;15.50;56.50
33865;DHT22;20159;51.072;13.526;2022-11-12T15:08:35;15.30;57.40
33865;DHT22;20159;51.072;13.526;2022-11-12T15:11:18;15.00;58.10
33865;DHT22;20159;51.072;13.526;2022-11-12T15:13:45;14.70;58.80
33865;DHT22;20159;51.072;13.526;2022-11-12T15:16:17;14.60;58.60
33865;DHT22;20159;51.072;13.526;2022-11-12T15:19:02;14.40;59.70
33865;DHT22;20159;51.072;13.526;2022-11-12T15:21:28;14.20;60.60
33865;DHT22;20159;51.072;13.526;2022-11-12T15:24:06;14.00;59.70
33865;DHT22;20159;51.072;13.526;2022-11-12T15:26:44;13.80;60.90
33865;DHT22;20159;51.072;13.526;2022-11-12T15:31:50;13.40;60.90
33865;DHT22;20159;51.072;13.526;2022-11-12T15:37:24;13.00;62.50
33865;DHT22;20159;51.072;13.526;2022-11-12T15:39:53;12.80;62.70
33865;DHT22;20159;51.072;13.526;2022-11-12T15:42:39;12.90;62.30
33865;DHT22;20159;51.072;13.526;2022-11-12T15:45:17;12.40;63.90
33865;DHT22;20159;51.072;13.526;2022-11-12T15:47:43;12.20;63.50
33865;DHT22;20159;51.072;13.526;2022-11-12T15:50:20;12.00;63.10
33865;DHT22;20159;51.072;13.526;2022-11-12T15:52:49;11.80;65.00
33865;DHT22;20159;51.072;13.526;2022-11-12T15:55:17;11.60;65.40
33865;DHT22;20159;51.072;13.526;2022-11-12T15:57:49;11.50;65.90
33865;DHT22;20159;51.072;13.526;2022-11-12T16:00:20;11.40;66.40
33865;DHT22;20159;51.072;13.526;2022-11-12T16:02:51;11.20;66.50
33865;DHT22;20159;51.072;13.526;2022-11-12T16:05:21;11.10;67.10
33865;DHT22;20159;51.072;13.526;2022-11-12T16:07:47;11.00;67.40
33865;DHT22;20159;51.072;13.526;2022-11-12T16:10:26;11.00;67.30
33865;DHT22;20159;51.072;13.526;2022-11-12T16:18:41;10.70;69.10
33865;DHT22;20159;51.072;13.526;2022-11-12T16:21:07;10.60;68.50
33865;DHT22;20159;51.072;13.526;2022-11-12T16:23:36;10.50;68.90
33865;DHT22;20159;51.072;13.526;2022-11-12T16:26:04;10.50;69.50
33865;DHT22;20159;51.072;13.526;2022-11-12T16:28:31;10.40;69.70
33865;DHT22;20159;51.072;13.526;2022-11-12T16:30:59;10.30;69.80
33865;DHT22;20159;51.072;13.526;2022-11-12T16:33:31;10.30;70.00
33865;DHT22;20159;51.072;13.526;2022-11-12T16:35:56;10.20;70.00
33865;DHT22;20159;51.072;13.526;2022-11-12T16:38:39;10.10;70.10
33865;DHT22;20159;51.072;13.526;2022-11-12T16:41:04;10.10;71.30
33865;DHT22;20159;51.072;13.526;2022-11-12T16:43:30;10.00;70.70
33865;DHT22;20159;51.072;13.526;2022-11-12T16:45:56;10.00;70.80
33865;DHT22;20159;51.072;13.526;2022-11-12T16:48:34;9.90;71.00
33865;DHT22;20159;51.072;13.526;2022-11-12T16:51:03;9.90;71.70
33865;DHT22;20159;51.072;13.526;2022-11-12T16:53:38;9.90;71.20
33865;DHT22;20159;51.072;13.526;2022-11-12T16:56:09;9.90;72.20
33865;DHT22;20159;51.072;13.526;2022-11-12T16:58:35;9.80;72.20
33865;DHT22;20159;51.072;13.526;2022-11-12T17:01:23;9.80;71.90
33865;DHT22;20159;51.072;13.526;2022-11-12T17:04:07;9.80;72.80
33865;DHT22;20159;51.072;13.526;2022-11-12T17:06:38;9.80;72.80
33865;DHT22;20159;51.072;13.526;2022-11-12T17:09:05;9.70;72.10
33865;DHT22;20159;51.072;13.526;2022-11-12T17:11:39;9.70;72.10
33865;DHT22;20159;51.072;13.526;2022-11-12T17:14:05;9.70;72.50
33865;DHT22;20159;51.072;13.526;2022-11-12T17:16:30;9.70;72.10
33865;DHT22;20159;51.072;13.526;2022-11-12T17:18:58;9.60;72.10
33865;DHT22;20159;51.072;13.526;2022-11-12T17:21:24;9.60;72.40
33865;DHT22;20159;51.072;13.526;2022-11-12T17:23:50;9.60;72.90